createdAt,value
2023-02-04T00:01:41.610Z,1.70
2023-02-04T00:04:09.353Z,1.80
2023-02-04T00:06:37.162Z,1.77
2023-02-04T00:09:05.110Z,1.80
2023-02-04T00:11:34.273Z,1.53
2023-02-04T00:14:02.142Z,2.10
2023-02-04T00:16:30.831Z,1.90
2023-02-04T00:18:58.641Z,1.83
2023-02-04T00:21:26.540Z,1.87
2023-02-04T00:23:56.475Z,1.90
2023-02-04T00:26:24.390Z,1.90
2023-02-04T00:28:53.558Z,1.83
2023-02-04T00:31:21.540Z,2.20
2023-02-04T00:33:49.340Z,1.77
2023-02-04T00:36:17.152Z,1.60
2023-02-04T00:38:44.898Z,1.87
2023-02-04T00:41:12.881Z,1.50
2023-02-04T00:43:40.614Z,1.57
2023-02-04T00:46:09.908Z,1.60
2023-02-04T00:48:37.747Z,1.37
2023-02-04T00:51:05.807Z,1.63
2023-02-04T00:53:33.979Z,1.13
2023-02-04T00:56:01.814Z,1.27
2023-02-04T00:58:29.567Z,1.40
2023-02-04T01:00:57.541Z,1.30
2023-02-04T01:03:26.794Z,1.43
2023-02-04T01:05:54.500Z,1.30
2023-02-04T01:08:22.425Z,1.77
2023-02-04T01:10:50.238Z,1.40
2023-02-04T01:13:18.133Z,1.83
2023-02-04T01:15:46.867Z,1.50
2023-02-04T01:18:14.680Z,1.63
2023-02-04T01:20:43.841Z,1.57
2023-02-04T01:23:11.561Z,1.83
2023-02-04T01:25:39.252Z,1.47
2023-02-04T01:28:07.206Z,1.57
2023-02-04T01:30:35.039Z,1.67
2023-02-04T01:33:02.824Z,1.30
2023-02-04T01:35:30.840Z,2.47
2023-02-04T01:38:00.001Z,1.87
2023-02-04T01:40:28.225Z,1.53
2023-02-04T01:42:56.185Z,1.43
2023-02-04T01:45:23.933Z,1.67
2023-02-04T01:47:51.911Z,1.63
2023-02-04T01:50:19.808Z,1.50
2023-02-04T01:52:47.902Z,1.80
2023-02-04T01:55:19.583Z,2.00
2023-02-04T01:57:48.114Z,1.63
2023-02-04T02:00:19.234Z,1.93
2023-02-04T02:02:50.403Z,1.20
2023-02-04T02:05:21.276Z,1.20
2023-02-04T02:07:49.452Z,1.77
2023-02-04T02:10:19.706Z,1.43
2023-02-04T02:12:48.090Z,1.63
2023-02-04T02:15:16.559Z,1.40
2023-02-04T02:17:44.726Z,2.00
2023-02-04T02:20:15.747Z,1.40
2023-02-04T02:22:52.600Z,1.80
2023-02-04T02:25:21.841Z,1.70
2023-02-04T02:27:49.775Z,1.53
2023-02-04T02:30:19.816Z,1.70
2023-02-04T02:32:48.903Z,1.50
2023-02-04T02:35:17.341Z,1.73
2023-02-04T02:37:45.515Z,1.60
2023-02-04T02:40:14.460Z,1.30
2023-02-04T02:42:44.640Z,1.50
2023-02-04T02:45:19.314Z,1.60
2023-02-04T02:47:47.163Z,1.50
2023-02-04T02:50:18.032Z,1.37
2023-02-04T02:52:45.856Z,1.40
2023-02-04T02:55:17.280Z,1.93
2023-02-04T02:57:48.290Z,1.57
2023-02-04T03:00:18.275Z,1.60
2023-02-04T03:02:48.998Z,1.50
2023-02-04T03:05:16.895Z,2.00
2023-02-04T03:07:44.797Z,1.83
2023-02-04T03:10:12.794Z,1.80
2023-02-04T03:12:40.781Z,1.43
2023-02-04T03:15:10.816Z,1.40
2023-02-04T03:17:38.694Z,1.77
2023-02-04T03:20:07.459Z,2.03
2023-02-04T03:22:35.439Z,1.90
2023-02-04T03:25:03.743Z,1.60
2023-02-04T03:27:31.551Z,1.60
2023-02-04T03:29:59.319Z,1.57
2023-02-04T03:32:28.431Z,1.50
2023-02-04T03:34:56.088Z,1.40
2023-02-04T03:37:23.947Z,1.40
2023-02-04T03:39:51.690Z,1.70
2023-02-04T03:42:19.496Z,1.50
2023-02-04T03:44:47.268Z,1.70
2023-02-04T03:47:15.040Z,1.80
2023-02-04T03:49:44.089Z,1.70
2023-02-04T03:52:11.890Z,1.40
2023-02-04T03:54:39.754Z,1.47
2023-02-04T03:57:07.466Z,1.80
2023-02-04T03:59:35.326Z,1.47
2023-02-04T04:02:03.099Z,1.43
2023-02-04T04:04:30.857Z,1.77
2023-02-04T04:07:00.141Z,1.70
2023-02-04T04:09:27.795Z,1.70
2023-02-04T04:11:55.610Z,1.33
2023-02-04T04:14:23.320Z,1.60
2023-02-04T04:16:51.109Z,1.87
2023-02-04T04:19:18.825Z,1.43
2023-02-04T04:21:46.565Z,1.60
2023-02-04T04:24:15.833Z,1.27
2023-02-04T04:26:43.659Z,1.57
2023-02-04T04:29:11.491Z,1.67
2023-02-04T04:31:39.769Z,1.70
2023-02-04T04:34:07.762Z,1.40
2023-02-04T04:36:35.600Z,1.30
2023-02-04T04:39:03.538Z,1.60
2023-02-04T04:41:32.672Z,1.53
2023-02-04T04:44:00.437Z,1.60
2023-02-04T04:46:28.269Z,1.27
2023-02-04T04:48:55.989Z,1.30
2023-02-04T04:51:23.778Z,1.90
2023-02-04T04:53:51.527Z,1.70
2023-02-04T04:56:20.183Z,1.90
2023-02-04T04:58:49.285Z,1.70
2023-02-04T05:01:17.119Z,1.30
2023-02-04T05:03:44.795Z,1.70
2023-02-04T05:06:13.054Z,1.70
2023-02-04T05:08:40.874Z,1.70
2023-02-04T05:11:08.850Z,1.50
2023-02-04T05:13:36.709Z,1.70
2023-02-04T05:16:06.539Z,1.83
2023-02-04T05:18:34.428Z,1.80
2023-02-04T05:21:02.222Z,1.40
2023-02-04T05:23:29.966Z,1.50
2023-02-04T05:25:57.989Z,1.93
2023-02-04T05:28:25.899Z,1.70
2023-02-04T05:30:53.877Z,1.83
2023-02-04T05:33:22.975Z,1.47
2023-02-04T05:35:50.845Z,1.60
2023-02-04T05:38:18.617Z,1.50
2023-02-04T05:40:46.436Z,1.60
2023-02-04T05:43:14.156Z,1.50
2023-02-04T05:45:41.951Z,1.57
2023-02-04T05:48:09.831Z,1.83
2023-02-04T05:50:38.932Z,1.60
2023-02-04T05:53:06.793Z,1.63
2023-02-04T05:55:34.606Z,2.17
2023-02-04T05:58:02.336Z,1.50
2023-02-04T06:00:30.395Z,1.87
2023-02-04T06:02:58.313Z,1.53
2023-02-04T06:05:26.146Z,1.83
2023-02-04T06:07:55.232Z,1.57
2023-02-04T06:10:22.941Z,1.40
2023-02-04T06:12:50.761Z,1.80
2023-02-04T06:15:18.573Z,1.70
2023-02-04T06:17:46.324Z,1.83
2023-02-04T06:20:15.784Z,1.77
2023-02-04T06:22:43.576Z,1.70
2023-02-04T06:25:12.740Z,2.13
2023-02-04T06:27:40.503Z,1.43
2023-02-04T06:30:09.736Z,2.37
2023-02-04T06:32:37.457Z,1.93
2023-02-04T06:35:05.695Z,1.40
2023-02-04T06:37:33.589Z,1.97
2023-02-04T06:40:01.386Z,1.80
2023-02-04T06:42:30.568Z,1.70
2023-02-04T06:44:58.318Z,2.00
2023-02-04T06:47:26.137Z,2.10
2023-02-04T06:49:53.902Z,1.93
2023-02-04T06:52:21.746Z,1.77
2023-02-04T06:54:49.618Z,2.23
2023-02-04T06:57:17.570Z,1.90
2023-02-04T06:59:47.176Z,1.83
2023-02-04T07:02:15.433Z,1.77
2023-02-04T07:04:43.831Z,2.10
2023-02-04T07:07:11.864Z,1.70
2023-02-04T07:09:40.591Z,2.00
2023-02-04T07:12:08.695Z,2.03
2023-02-04T07:14:36.419Z,2.10
2023-02-04T07:17:05.562Z,1.70
2023-02-04T07:19:33.759Z,4.83
2023-02-04T07:22:01.577Z,2.57
2023-02-04T07:24:29.371Z,2.10
2023-02-04T07:26:57.356Z,1.90
2023-02-04T07:29:26.038Z,1.77
2023-02-04T07:31:54.157Z,2.00
2023-02-04T07:34:23.654Z,2.33
2023-02-04T07:36:51.516Z,2.90
2023-02-04T07:39:19.358Z,2.10
2023-02-04T07:41:47.127Z,1.93
2023-02-04T07:44:15.094Z,2.07
2023-02-04T07:46:42.929Z,1.83
2023-02-04T07:49:10.786Z,2.60
2023-02-04T07:51:39.943Z,2.20
2023-02-04T07:54:07.696Z,2.20
2023-02-04T07:56:36.723Z,1.50
2023-02-04T07:59:04.462Z,2.23
2023-02-04T08:01:32.265Z,2.30
2023-02-04T08:04:00.117Z,1.97
2023-02-04T08:06:27.917Z,1.90
2023-02-04T08:08:57.539Z,2.10
2023-02-04T08:11:26.994Z,1.90
2023-02-04T08:13:54.711Z,2.10
2023-02-04T08:16:22.501Z,2.20
2023-02-04T08:18:50.292Z,2.30
2023-02-04T08:21:19.477Z,1.80
2023-02-04T08:23:47.308Z,1.77
2023-02-04T08:26:16.408Z,2.30
2023-02-04T08:28:44.184Z,1.73
2023-02-04T08:31:12.712Z,2.00
2023-02-04T08:33:40.865Z,1.90
2023-02-04T08:36:09.234Z,2.13
2023-02-04T08:38:36.976Z,2.20
2023-02-04T08:41:05.124Z,2.83
2023-02-04T08:43:34.272Z,2.40
2023-02-04T08:46:02.085Z,1.53
2023-02-04T08:48:29.884Z,2.27
2023-02-04T08:50:57.804Z,1.90
2023-02-04T08:53:25.664Z,1.77
2023-02-04T08:55:53.424Z,2.10
2023-02-04T08:58:21.203Z,2.23
2023-02-04T09:00:50.405Z,2.00
2023-02-04T09:03:18.245Z,2.43
2023-02-04T09:05:47.630Z,1.87
2023-02-04T09:08:15.784Z,1.87
2023-02-04T09:10:43.512Z,2.03
2023-02-04T09:13:11.773Z,1.80
2023-02-04T09:15:39.610Z,1.77
2023-02-04T09:18:16.371Z,1.60
2023-02-04T09:20:44.249Z,1.97
2023-02-04T09:23:12.923Z,2.20
2023-02-04T09:25:41.183Z,2.00
2023-02-04T09:28:11.402Z,1.80
2023-02-04T09:30:39.954Z,1.40
2023-02-04T09:33:10.521Z,1.50
2023-02-04T09:35:38.439Z,1.87
2023-02-04T09:38:06.469Z,1.60
2023-02-04T09:40:38.243Z,1.73
2023-02-04T09:43:06.777Z,2.13
2023-02-04T09:45:36.408Z,2.20
2023-02-04T09:48:06.867Z,1.90
2023-02-04T09:50:36.978Z,1.67
2023-02-04T09:53:07.559Z,2.10
2023-02-04T09:55:38.750Z,1.60
2023-02-04T09:58:13.313Z,3.77
2023-02-04T10:00:41.404Z,2.07
2023-02-04T10:03:15.873Z,1.60
2023-02-04T10:05:45.433Z,1.73
2023-02-04T10:08:16.378Z,3.70
2023-02-04T10:10:45.098Z,1.97
2023-02-04T10:13:18.514Z,2.10
2023-02-04T10:15:46.994Z,1.73
2023-02-04T10:18:24.774Z,2.30
2023-02-04T10:20:56.645Z,1.53
2023-02-04T10:23:24.509Z,1.47
2023-02-04T10:25:52.368Z,1.90
2023-02-04T10:28:20.186Z,1.90
2023-02-04T10:30:48.012Z,1.40
2023-02-04T10:33:17.416Z,1.90
2023-02-04T10:35:47.191Z,1.97
2023-02-04T10:38:16.461Z,1.93
2023-02-04T10:40:44.342Z,1.43
2023-02-04T10:43:15.138Z,1.50
2023-02-04T10:45:47.269Z,1.30
2023-02-04T10:48:17.432Z,1.30
2023-02-04T10:50:46.926Z,1.43
2023-02-04T10:53:36.513Z,1.30
2023-02-04T10:56:05.633Z,2.07
2023-02-04T10:58:33.724Z,1.50
2023-02-04T11:01:02.421Z,1.50
2023-02-04T11:03:32.341Z,1.40
2023-02-04T11:06:01.860Z,1.20
2023-02-04T11:08:35.318Z,1.00
2023-02-04T11:11:07.394Z,1.40
2023-02-04T11:13:42.712Z,1.30
2023-02-04T11:16:26.256Z,0.97
2023-02-04T11:18:56.187Z,1.43
2023-02-04T11:21:27.542Z,1.47
2023-02-04T11:24:21.879Z,1.17
2023-02-04T11:26:52.546Z,1.50
2023-02-04T11:29:34.594Z,1.40
2023-02-04T11:32:05.557Z,1.43
2023-02-04T11:34:47.078Z,1.60
2023-02-04T11:37:19.078Z,1.50
2023-02-04T11:39:49.442Z,1.50
2023-02-04T11:42:23.529Z,1.53
2023-02-04T11:44:55.849Z,1.30
2023-02-04T11:47:25.983Z,1.33
2023-02-04T11:49:57.357Z,1.10
2023-02-04T11:52:25.088Z,1.40
2023-02-04T11:54:59.759Z,1.10
2023-02-04T11:57:28.583Z,1.67
2023-02-04T11:59:56.702Z,2.20
2023-02-04T12:02:27.055Z,1.77
2023-02-04T12:04:56.986Z,1.80
2023-02-04T12:07:29.903Z,1.50
2023-02-04T12:09:59.044Z,1.93
2023-02-04T12:12:29.165Z,1.43
2023-02-04T12:15:06.167Z,1.33
2023-02-04T12:17:33.877Z,1.67
2023-02-04T12:20:01.702Z,1.50
2023-02-04T12:22:29.672Z,1.10
2023-02-04T12:24:57.333Z,1.17
2023-02-04T12:27:26.532Z,1.30
2023-02-04T12:29:54.365Z,1.10
2023-02-04T12:32:22.168Z,1.20
2023-02-04T12:34:49.916Z,0.90
2023-02-04T12:37:17.633Z,1.10
2023-02-04T12:39:45.355Z,1.30
2023-02-04T12:42:13.112Z,1.10
2023-02-04T12:44:42.178Z,1.03
2023-02-04T12:47:09.958Z,1.20
2023-02-04T12:49:38.055Z,1.33
2023-02-04T12:52:06.358Z,1.00
2023-02-04T12:54:34.305Z,1.23
2023-02-04T12:57:02.741Z,0.93
2023-02-04T12:59:31.504Z,1.10
2023-02-04T13:02:01.896Z,1.17
2023-02-04T13:04:29.645Z,1.80
2023-02-04T13:06:57.504Z,1.93
2023-02-04T13:09:25.389Z,2.27
2023-02-04T13:11:53.197Z,1.97
2023-02-04T13:14:20.998Z,1.47
2023-02-04T13:16:48.776Z,1.20
2023-02-04T13:19:17.930Z,1.73
2023-02-04T13:21:45.822Z,1.27
2023-02-04T13:24:13.798Z,1.40
2023-02-04T13:26:41.631Z,1.50
2023-02-04T13:29:09.292Z,1.57
2023-02-04T13:31:37.151Z,1.60
2023-02-04T13:34:05.112Z,1.20
2023-02-04T13:36:34.417Z,1.43
2023-02-04T13:39:02.206Z,1.00
2023-02-04T13:41:30.188Z,1.20
2023-02-04T13:43:58.469Z,1.20
2023-02-04T13:46:26.543Z,1.60
2023-02-04T13:48:54.290Z,1.73
2023-02-04T13:51:22.070Z,1.50
2023-02-04T13:53:51.338Z,1.50
2023-02-04T13:56:19.349Z,2.07
2023-02-04T13:58:47.208Z,2.20
2023-02-04T14:01:16.038Z,1.60
2023-02-04T14:03:43.891Z,1.30
2023-02-04T14:06:11.987Z,1.60
2023-02-04T14:08:40.242Z,2.10
2023-02-04T14:11:09.770Z,1.87
2023-02-04T14:13:37.576Z,1.33
2023-02-04T14:16:09.140Z,3.60
2023-02-04T14:18:37.249Z,1.40
2023-02-04T14:21:05.161Z,2.87
2023-02-04T14:23:33.030Z,1.70
2023-02-04T14:26:00.963Z,1.43
2023-02-04T14:28:30.299Z,1.50
2023-02-04T14:30:58.431Z,1.57
2023-02-04T14:33:26.326Z,1.60
2023-02-04T14:35:54.105Z,1.20
2023-02-04T14:38:22.157Z,1.40
2023-02-04T14:40:49.976Z,3.33
2023-02-04T14:43:17.967Z,1.30
2023-02-04T14:45:50.063Z,1.50
2023-02-04T14:48:18.229Z,1.70
2023-02-04T14:50:46.030Z,2.17
2023-02-04T14:53:13.906Z,1.50
2023-02-04T14:55:41.719Z,1.43
2023-02-04T14:58:09.488Z,1.30
2023-02-04T15:00:37.390Z,2.03
2023-02-04T15:03:08.857Z,1.37
2023-02-04T15:05:39.317Z,1.50
2023-02-04T15:08:07.328Z,1.23
2023-02-04T15:10:38.274Z,1.67
2023-02-04T15:13:06.577Z,1.90
2023-02-04T15:15:34.576Z,1.50
2023-02-04T15:18:02.652Z,2.10
2023-02-04T15:20:32.268Z,3.77
2023-02-04T15:23:00.954Z,1.90
2023-02-04T15:25:31.129Z,1.83
2023-02-04T15:27:59.129Z,1.80
2023-02-04T15:30:27.150Z,1.80
2023-02-04T15:32:55.668Z,3.37
2023-02-04T15:35:23.736Z,2.77
2023-02-04T15:37:53.222Z,1.60
2023-02-04T15:40:21.470Z,1.43
2023-02-04T15:42:50.778Z,1.63
2023-02-04T15:45:18.513Z,1.80
2023-02-04T15:47:46.577Z,1.80
2023-02-04T15:50:15.195Z,2.20
2023-02-04T15:52:43.091Z,1.87
2023-02-04T15:55:12.535Z,1.93
2023-02-04T15:57:40.610Z,2.27
2023-02-04T16:00:10.052Z,1.80
2023-02-04T16:02:38.146Z,1.53
2023-02-04T16:05:17.772Z,2.10
2023-02-04T16:07:45.759Z,2.00
2023-02-04T16:10:16.832Z,2.27
2023-02-04T16:12:47.348Z,2.03
2023-02-04T16:15:16.389Z,2.57
2023-02-04T16:17:44.929Z,1.57
2023-02-04T16:20:13.111Z,1.90
2023-02-04T16:22:41.179Z,1.87
2023-02-04T16:25:09.604Z,1.90
2023-02-04T16:27:39.082Z,2.10
2023-02-04T16:30:08.138Z,1.70
2023-02-04T16:32:37.096Z,1.60
2023-02-04T16:35:06.589Z,2.50
2023-02-04T16:37:35.312Z,2.17
2023-02-04T16:40:03.973Z,1.47
2023-02-04T16:42:32.166Z,2.23
2023-02-04T16:45:01.690Z,1.90
2023-02-04T16:47:30.007Z,1.70
2023-02-04T16:50:00.903Z,2.07
2023-02-04T16:52:28.918Z,2.50
2023-02-04T16:54:56.802Z,2.40
2023-02-04T16:57:26.720Z,2.00
2023-02-04T16:59:56.729Z,2.23
2023-02-04T17:02:25.968Z,3.70
2023-02-04T17:04:53.753Z,3.37
2023-02-04T17:07:21.500Z,2.90
2023-02-04T17:09:49.318Z,2.10
2023-02-04T17:12:17.155Z,2.00
2023-02-04T17:14:45.028Z,3.30
2023-02-04T17:17:12.930Z,1.70
2023-02-04T17:19:41.977Z,2.57
2023-02-04T17:22:09.768Z,2.10
2023-02-04T17:24:43.423Z,2.23
2023-02-04T17:27:11.559Z,2.00
2023-02-04T17:29:39.303Z,1.80
2023-02-04T17:32:08.610Z,2.13
2023-02-04T17:34:36.447Z,1.93
2023-02-04T17:37:05.587Z,1.93
2023-02-04T17:39:33.633Z,2.50
2023-02-04T17:42:01.461Z,1.87
2023-02-04T17:44:29.935Z,1.90
2023-02-04T17:46:59.034Z,1.73
2023-02-04T17:49:27.091Z,1.70
2023-02-04T17:51:55.089Z,2.20
2023-02-04T17:54:27.208Z,2.33
2023-02-04T17:56:57.917Z,1.27
2023-02-04T17:59:26.042Z,2.03
2023-02-04T18:01:54.917Z,2.00
2023-02-04T18:04:22.883Z,2.10
2023-02-04T18:06:53.384Z,1.88
2023-02-04T18:09:21.158Z,2.22
2023-02-04T18:11:50.708Z,2.83
2023-02-04T18:14:22.796Z,2.65
2023-02-04T18:16:50.751Z,1.98
2023-02-04T18:19:20.818Z,2.17
2023-02-04T18:21:49.277Z,2.00
2023-02-04T18:24:20.236Z,1.73
2023-02-04T18:26:52.002Z,2.00
2023-02-04T18:29:37.965Z,2.35
2023-02-04T18:32:15.708Z,2.38
2023-02-04T18:34:45.911Z,2.28
2023-02-04T18:37:30.962Z,1.75
2023-02-04T18:40:19.668Z,2.10
2023-02-04T18:42:49.675Z,2.03
2023-02-04T18:45:24.957Z,1.92
2023-02-04T18:47:55.810Z,2.75
2023-02-04T18:50:29.567Z,2.53
2023-02-04T18:52:57.659Z,2.70
2023-02-04T18:55:34.857Z,2.08
2023-02-04T18:58:27.246Z,2.08
2023-02-04T19:00:59.381Z,2.13
2023-02-04T19:03:29.099Z,2.28
2023-02-04T19:06:01.839Z,2.22
2023-02-04T19:08:33.382Z,2.42
2023-02-04T19:11:01.137Z,2.78
2023-02-04T19:13:41.123Z,2.80
2023-02-04T19:16:22.940Z,2.30
2023-02-04T19:18:51.620Z,2.53
2023-02-04T19:21:28.663Z,2.30
2023-02-04T19:24:00.634Z,1.75
2023-02-04T19:26:35.899Z,2.38
2023-02-04T19:29:39.305Z,2.50
2023-02-04T19:32:22.813Z,2.78
2023-02-04T19:34:52.666Z,2.88
2023-02-04T19:37:26.574Z,4.18
2023-02-04T19:39:55.730Z,3.75
2023-02-04T19:42:29.404Z,3.38
2023-02-04T19:45:01.164Z,2.90
2023-02-04T19:47:30.946Z,2.75
2023-02-04T19:50:23.436Z,2.47
2023-02-04T19:52:53.318Z,3.05
2023-02-04T19:55:33.385Z,3.00
2023-02-04T19:58:10.644Z,2.83
2023-02-04T20:00:44.809Z,2.63
2023-02-04T20:03:46.267Z,2.10
2023-02-04T20:06:30.220Z,2.00
2023-02-04T20:09:11.215Z,2.90
2023-02-04T20:11:59.846Z,2.20
2023-02-04T20:14:40.800Z,2.53
2023-02-04T20:17:34.908Z,2.20
2023-02-04T20:20:17.644Z,1.98
2023-02-04T20:22:47.939Z,1.92
2023-02-04T20:25:45.050Z,2.03
2023-02-04T20:28:22.574Z,1.88
2023-02-04T20:30:52.118Z,2.78
2023-02-04T20:33:34.408Z,2.17
2023-02-04T20:36:36.064Z,2.97
2023-02-04T20:39:39.182Z,3.08
2023-02-04T20:42:38.293Z,3.13
2023-02-04T20:45:27.699Z,2.88
2023-02-04T20:47:59.781Z,2.60
2023-02-04T20:50:41.391Z,2.75
2023-02-04T20:53:23.175Z,2.40
2023-02-04T20:55:53.785Z,2.65
2023-02-04T20:58:24.291Z,2.25
2023-02-04T21:00:56.671Z,2.25
2023-02-04T21:03:28.036Z,2.17
2023-02-04T21:05:59.302Z,2.45
2023-02-04T21:08:38.120Z,2.95
2023-02-04T21:11:06.599Z,2.70
2023-02-04T21:13:34.437Z,3.17
2023-02-04T21:16:02.968Z,2.90
2023-02-04T21:18:34.018Z,3.80
2023-02-04T21:21:03.543Z,3.50
2023-02-04T21:23:31.602Z,3.33
2023-02-04T21:25:59.424Z,2.72
2023-02-04T21:28:27.192Z,3.92
2023-02-04T21:30:55.001Z,4.75
2023-02-04T21:33:22.832Z,5.78
2023-02-04T21:35:50.582Z,4.53
2023-02-04T21:38:19.843Z,4.85
2023-02-04T21:40:47.707Z,4.35
2023-02-04T21:43:15.652Z,4.13
2023-02-04T21:45:43.404Z,4.57
2023-02-04T21:48:11.146Z,5.75
2023-02-04T21:50:39.437Z,6.47
2023-02-04T21:53:07.901Z,7.22
2023-02-04T21:55:37.598Z,9.35
2023-02-04T21:58:05.801Z,6.80
2023-02-04T22:00:34.163Z,4.00
2023-02-04T22:03:02.430Z,6.97
2023-02-04T22:05:30.206Z,10.32
2023-02-04T22:07:59.750Z,5.93
2023-02-04T22:10:27.812Z,4.05
2023-02-04T22:12:56.962Z,3.20
2023-02-04T22:15:25.144Z,2.65
2023-02-04T22:17:54.261Z,3.20
2023-02-04T22:20:25.602Z,3.63
2023-02-04T22:22:53.872Z,3.13
2023-02-04T22:25:22.477Z,2.78
2023-02-04T22:27:50.345Z,3.15
2023-02-04T22:30:20.068Z,2.80
2023-02-04T22:32:47.868Z,3.40
2023-02-04T22:35:16.146Z,3.08
2023-02-04T22:37:44.161Z,4.53
2023-02-04T22:40:13.081Z,4.88
2023-02-04T22:42:41.314Z,3.88
2023-02-04T22:45:10.285Z,4.60
2023-02-04T22:47:39.812Z,5.00
2023-02-04T22:50:08.498Z,4.15
2023-02-04T22:52:36.410Z,3.17
2023-02-04T22:55:04.241Z,3.50
2023-02-04T22:57:32.057Z,2.63
2023-02-04T23:00:00.141Z,2.75
2023-02-04T23:02:27.945Z,2.58
2023-02-04T23:04:57.156Z,3.00
2023-02-04T23:07:24.928Z,2.30
2023-02-04T23:09:52.834Z,2.90
2023-02-04T23:12:20.587Z,2.58
2023-02-04T23:14:49.920Z,2.80
2023-02-04T23:17:19.039Z,3.42
2023-02-04T23:19:46.818Z,4.03
2023-02-04T23:22:16.941Z,4.75
2023-02-04T23:24:45.133Z,4.25
2023-02-04T23:27:13.299Z,3.45
2023-02-04T23:29:41.031Z,3.00
2023-02-04T23:32:09.420Z,2.92
2023-02-04T23:34:37.232Z,3.53
2023-02-04T23:37:05.256Z,2.75
2023-02-04T23:39:34.389Z,2.90
2023-02-04T23:42:02.973Z,3.33
2023-02-04T23:44:30.801Z,3.85
2023-02-04T23:46:58.780Z,3.00
2023-02-04T23:49:26.681Z,2.90
2023-02-04T23:51:54.512Z,3.20
2023-02-04T23:54:23.575Z,3.47
2023-02-04T23:56:53.654Z,2.97
2023-02-04T23:59:21.515Z,3.30
